createdAt,value
2022-11-11T00:01:14.371Z,102095.84
2022-11-11T00:03:41.868Z,102087.97
2022-11-11T00:06:14.363Z,102093.44
2022-11-11T00:08:41.891Z,102097.97
2022-11-11T00:11:13.447Z,102098.91
2022-11-11T00:13:41.146Z,102097.91
2022-11-11T00:16:16.231Z,102109.50
2022-11-11T00:19:02.586Z,102114.84
2022-11-11T00:21:39.074Z,102120.16
2022-11-11T00:24:27.073Z,102122.56
2022-11-11T00:26:53.992Z,102118.09
2022-11-11T00:29:21.146Z,102120.88
2022-11-11T00:32:06.679Z,102118.09
2022-11-11T00:34:33.604Z,102111.91
2022-11-11T00:37:00.565Z,102113.78
2022-11-11T00:39:27.396Z,102123.59
2022-11-11T00:41:54.279Z,102125.47
2022-11-11T00:44:21.101Z,102112.28
2022-11-11T00:47:06.763Z,102123.62
2022-11-11T00:49:52.459Z,102122.00
2022-11-11T00:52:19.311Z,102117.72
2022-11-11T00:54:46.149Z,102126.78
2022-11-11T00:57:12.959Z,102118.78
2022-11-11T00:59:40.440Z,102117.19
2022-11-11T01:02:07.359Z,102116.28
2022-11-11T01:04:34.543Z,102111.03
2022-11-11T01:07:01.425Z,102112.03
2022-11-11T01:09:28.458Z,102114.94
2022-11-11T01:11:55.398Z,102117.63
2022-11-11T01:14:22.295Z,102127.38
2022-11-11T01:16:49.232Z,102127.38
2022-11-11T01:19:16.101Z,102129.22
2022-11-11T01:21:43.038Z,102129.41
2022-11-11T01:24:10.267Z,102124.09
2022-11-11T01:26:37.192Z,102129.41
2022-11-11T01:29:04.121Z,102116.16
2022-11-11T01:31:31.162Z,102131.19
2022-11-11T01:33:58.235Z,102122.34
2022-11-11T01:36:27.221Z,102125.06
2022-11-11T01:38:56.621Z,102137.56
2022-11-11T01:41:35.289Z,102138.53
2022-11-11T01:44:11.608Z,102131.47
2022-11-11T01:46:47.370Z,102135.09
2022-11-11T01:49:29.597Z,102132.63
2022-11-11T01:52:33.067Z,102128.13
2022-11-11T01:54:59.990Z,102133.56
2022-11-11T01:57:29.386Z,102137.25
2022-11-11T02:00:04.382Z,102142.56
2022-11-11T02:02:37.847Z,102146.13
2022-11-11T02:05:24.429Z,102152.37
2022-11-11T02:07:51.711Z,102147.19
2022-11-11T02:10:22.592Z,102148.13
2022-11-11T02:13:08.062Z,102150.97
2022-11-11T02:15:36.050Z,102134.13
2022-11-11T02:18:03.322Z,102152.75
2022-11-11T02:20:33.259Z,102148.31
2022-11-11T02:23:32.936Z,102146.53
2022-11-11T02:26:01.274Z,102151.00
2022-11-11T02:28:28.312Z,102152.81
2022-11-11T02:30:55.344Z,102155.47
2022-11-11T02:33:22.481Z,102157.25
2022-11-11T02:35:56.359Z,102157.28
2022-11-11T02:38:24.888Z,102157.38
2022-11-11T02:41:10.473Z,102144.19
2022-11-11T02:43:37.478Z,102157.44
2022-11-11T02:46:05.750Z,102166.38
2022-11-11T02:48:33.174Z,102169.13
2022-11-11T02:51:00.029Z,102173.63
2022-11-11T02:53:27.571Z,102174.53
2022-11-11T02:55:54.803Z,102164.00
2022-11-11T02:58:21.895Z,102172.81
2022-11-11T03:00:48.811Z,102176.50
2022-11-11T03:03:15.735Z,102175.63
2022-11-11T03:05:42.832Z,102182.78
2022-11-11T03:08:10.163Z,102187.28
2022-11-11T03:10:37.355Z,102183.72
2022-11-11T03:13:04.422Z,102190.81
2022-11-11T03:15:31.335Z,102197.97
2022-11-11T03:17:58.352Z,102195.28
2022-11-11T03:20:43.836Z,102203.28
2022-11-11T03:23:15.526Z,102197.97
2022-11-11T03:25:46.848Z,102208.56
2022-11-11T03:28:15.065Z,102199.75
2022-11-11T03:30:44.088Z,102206.84
2022-11-11T03:33:11.423Z,102210.38
2022-11-11T03:35:38.711Z,102209.53
2022-11-11T03:38:23.612Z,102207.81
2022-11-11T03:40:54.490Z,102206.06
2022-11-11T03:43:23.483Z,102196.37
2022-11-11T03:45:52.097Z,102207.91
2022-11-11T03:48:19.095Z,102212.38
2022-11-11T03:50:48.071Z,102215.97
2022-11-11T03:53:15.922Z,102214.22
2022-11-11T03:55:43.345Z,102208.06
2022-11-11T03:58:10.384Z,102214.28
2022-11-11T04:00:37.554Z,102224.88
2022-11-11T04:03:37.470Z,102231.09
2022-11-11T04:06:23.823Z,102232.00
2022-11-11T04:09:09.400Z,102239.06
2022-11-11T04:11:40.284Z,102233.78
2022-11-11T04:14:28.607Z,102241.75
2022-11-11T04:16:55.907Z,102238.22
2022-11-11T04:19:41.796Z,102235.56
2022-11-11T04:22:09.014Z,102240.00
2022-11-11T04:24:54.485Z,102236.50
2022-11-11T04:27:21.589Z,102243.59
2022-11-11T04:29:48.535Z,102235.62
2022-11-11T04:32:36.221Z,102239.13
2022-11-11T04:35:07.412Z,102244.44
2022-11-11T04:37:46.016Z,102242.66
2022-11-11T04:40:32.186Z,102239.97
2022-11-11T04:42:58.998Z,102239.97
2022-11-11T04:45:28.888Z,102241.72
2022-11-11T04:48:01.306Z,102249.66
2022-11-11T04:50:30.770Z,102244.34
2022-11-11T04:52:57.764Z,102247.91
2022-11-11T04:55:43.714Z,102238.16
2022-11-11T04:58:11.098Z,102243.47
2022-11-11T05:00:37.957Z,102239.87
2022-11-11T05:03:17.461Z,102247.84
2022-11-11T05:06:14.232Z,102249.59
2022-11-11T05:08:57.849Z,102257.50
2022-11-11T05:11:35.782Z,102249.50
2022-11-11T05:14:23.952Z,102250.37
2022-11-11T05:17:11.654Z,102251.31
2022-11-11T05:19:57.987Z,102245.97
2022-11-11T05:22:42.037Z,102255.69
2022-11-11T05:25:25.551Z,102263.63
2022-11-11T05:27:57.221Z,102258.28
2022-11-11T05:30:24.771Z,102259.12
2022-11-11T05:32:51.965Z,102238.81
2022-11-11T05:35:18.910Z,102258.19
2022-11-11T05:38:05.909Z,102259.03
2022-11-11T05:40:32.783Z,102264.31
2022-11-11T05:42:59.722Z,102267.84
2022-11-11T05:45:26.545Z,102271.38
2022-11-11T05:47:53.458Z,102273.09
2022-11-11T05:50:20.444Z,102265.13
2022-11-11T05:52:48.973Z,102264.22
2022-11-11T05:55:15.903Z,102265.97
2022-11-11T05:57:42.787Z,102267.72
2022-11-11T06:00:10.721Z,102272.09
2022-11-11T06:02:38.242Z,102280.13
2022-11-11T06:05:05.415Z,102284.53
2022-11-11T06:07:32.252Z,102287.13
2022-11-11T06:10:18.985Z,102283.56
2022-11-11T06:13:10.206Z,102294.16
2022-11-11T06:15:41.082Z,102303.84
2022-11-11T06:18:07.977Z,102295.88
2022-11-11T06:20:37.739Z,102311.72
2022-11-11T06:23:05.209Z,102307.25
2022-11-11T06:25:52.086Z,102305.44
2022-11-11T06:28:19.333Z,102307.13
2022-11-11T06:30:50.787Z,102311.47
2022-11-11T06:33:19.161Z,102313.19
2022-11-11T06:35:46.027Z,102307.00
2022-11-11T06:38:12.866Z,102307.97
2022-11-11T06:40:39.911Z,102314.03
2022-11-11T06:43:06.751Z,102311.31
2022-11-11T06:45:35.241Z,102326.25
2022-11-11T06:48:06.002Z,102322.56
2022-11-11T06:50:33.485Z,102317.06
2022-11-11T06:53:12.039Z,102333.75
2022-11-11T06:55:39.405Z,102337.25
2022-11-11T06:58:11.634Z,102342.53
2022-11-11T07:00:39.587Z,102356.69
2022-11-11T07:03:07.620Z,102362.06
2022-11-11T07:05:34.564Z,102372.03
2022-11-11T07:08:06.559Z,102363.88
2022-11-11T07:10:34.996Z,102354.94
2022-11-11T07:13:02.310Z,102357.50
2022-11-11T07:15:29.214Z,102361.75
2022-11-11T07:17:56.059Z,102365.06
2022-11-11T07:20:22.983Z,102345.63
2022-11-11T07:22:49.850Z,102368.44
2022-11-11T07:25:16.818Z,102377.31
2022-11-11T07:27:43.757Z,102377.38
2022-11-11T07:30:12.007Z,102383.47
2022-11-11T07:32:49.810Z,102377.97
2022-11-11T07:35:17.990Z,102379.84
2022-11-11T07:37:45.588Z,102383.19
2022-11-11T07:40:14.962Z,102377.75
2022-11-11T07:42:42.987Z,102380.25
2022-11-11T07:45:11.151Z,102387.25
2022-11-11T07:47:38.051Z,102384.53
2022-11-11T07:50:08.240Z,102384.34
2022-11-11T07:52:37.376Z,102392.13
2022-11-11T07:55:08.483Z,102400.88
2022-11-11T07:57:35.650Z,102396.31
2022-11-11T08:00:02.675Z,102399.69
2022-11-11T08:02:29.522Z,102401.38
2022-11-11T08:04:56.409Z,102400.31
2022-11-11T08:07:24.393Z,102409.00
2022-11-11T08:09:52.212Z,102400.84
2022-11-11T08:12:37.887Z,102402.47
2022-11-11T08:15:07.250Z,102407.50
2022-11-11T08:17:39.403Z,102401.34
2022-11-11T08:20:08.150Z,102399.28
2022-11-11T08:22:38.718Z,102400.00
2022-11-11T08:25:11.207Z,102398.06
2022-11-11T08:27:38.625Z,102401.47
2022-11-11T08:30:06.890Z,102404.53
2022-11-11T08:32:33.852Z,102405.87
2022-11-11T08:35:00.724Z,102406.97
2022-11-11T08:37:28.373Z,102392.22
2022-11-11T08:39:55.546Z,102391.34
2022-11-11T08:42:22.471Z,102406.41
2022-11-11T08:44:49.517Z,102402.66
2022-11-11T08:47:16.568Z,102411.97
2022-11-11T08:49:43.587Z,102405.47
2022-11-11T08:52:10.437Z,102406.25
2022-11-11T08:54:37.275Z,102410.91
2022-11-11T08:57:04.068Z,102402.47
2022-11-11T08:59:31.032Z,102400.81
2022-11-11T09:01:57.979Z,102394.41
2022-11-11T09:07:11.802Z,102400.19
2022-11-11T09:09:38.703Z,102401.72
2022-11-11T09:12:05.527Z,102397.06
2022-11-11T09:14:32.485Z,102398.47
2022-11-11T09:16:59.329Z,102395.28
2022-11-11T09:19:26.197Z,102399.19
2022-11-11T09:21:53.329Z,102404.47
2022-11-11T09:24:20.342Z,102405.06
2022-11-11T09:26:51.020Z,102407.19
2022-11-11T09:29:18.845Z,102395.03
2022-11-11T09:31:46.685Z,102393.84
2022-11-11T09:34:14.609Z,102397.72
2022-11-11T09:36:41.797Z,102391.81
2022-11-11T09:39:08.848Z,102402.09
2022-11-11T09:41:39.820Z,102394.47
2022-11-11T09:44:34.820Z,102393.19
2022-11-11T09:47:31.949Z,102383.50
2022-11-11T09:50:16.473Z,102376.88
2022-11-11T09:52:52.886Z,102381.12
2022-11-11T09:55:33.939Z,102375.94
2022-11-11T09:58:20.426Z,102368.97
2022-11-11T10:00:51.196Z,102370.50
2022-11-11T10:03:22.944Z,102353.00
2022-11-11T10:05:56.410Z,102347.91
2022-11-11T10:08:28.785Z,102336.19
2022-11-11T10:10:59.512Z,102326.13
2022-11-11T10:13:31.904Z,102317.38
2022-11-11T10:16:07.672Z,102318.34
2022-11-11T10:18:55.874Z,102320.19
2022-11-11T10:24:46.985Z,102302.03
2022-11-11T10:27:19.782Z,102299.88
2022-11-11T10:29:47.387Z,102308.84
2022-11-11T10:32:21.095Z,102317.59
2022-11-11T10:34:48.006Z,102324.41
2022-11-11T10:37:25.658Z,102329.97
2022-11-11T10:40:02.453Z,102328.34
2022-11-11T10:42:29.250Z,102336.09
2022-11-11T10:45:03.826Z,102325.41
2022-11-11T10:48:00.714Z,102299.06
2022-11-11T10:50:49.709Z,102287.28
2022-11-11T10:53:40.150Z,102290.66
2022-11-11T10:56:20.961Z,102281.16
2022-11-11T10:58:54.034Z,102269.66
2022-11-11T11:01:35.635Z,102263.16
2022-11-11T11:04:08.841Z,102259.16
2022-11-11T11:06:38.322Z,102263.59
2022-11-11T11:09:18.278Z,102268.84
2022-11-11T11:11:45.097Z,102259.94
2022-11-11T11:14:45.326Z,102256.81
2022-11-11T11:17:24.905Z,102265.28
2022-11-11T11:20:14.508Z,102255.16
2022-11-11T11:22:53.065Z,102249.78
2022-11-11T11:27:50.452Z,102266.00
2022-11-11T11:30:21.741Z,102272.59
2022-11-11T11:33:02.982Z,102278.34
2022-11-11T11:35:30.207Z,102275.44
2022-11-11T11:37:57.599Z,102288.56
2022-11-11T11:40:24.459Z,102268.50
2022-11-11T11:42:51.252Z,102286.41
2022-11-11T11:45:21.073Z,102275.81
2022-11-11T11:48:30.527Z,102278.16
2022-11-11T11:51:04.417Z,102288.38
2022-11-11T11:53:59.782Z,102278.16
2022-11-11T11:56:29.267Z,102269.31
2022-11-11T11:59:03.472Z,102280.78
2022-11-11T12:01:40.415Z,102266.97
2022-11-11T12:04:13.310Z,102272.06
2022-11-11T12:07:20.994Z,102278.84
2022-11-11T12:10:17.556Z,102239.50
2022-11-11T12:13:05.833Z,102235.25
2022-11-11T12:15:58.381Z,102227.97
2022-11-11T12:18:44.922Z,102234.09
2022-11-11T12:21:14.746Z,102239.66
2022-11-11T12:24:15.146Z,102239.72
2022-11-11T12:27:11.754Z,102229.38
2022-11-11T12:29:56.958Z,102227.56
2022-11-11T12:32:26.649Z,102229.44
2022-11-11T12:35:30.968Z,102209.25
2022-11-11T12:38:11.479Z,102212.38
2022-11-11T12:41:03.271Z,102232.88
2022-11-11T12:43:39.186Z,102228.50
2022-11-11T12:46:15.616Z,102237.75
2022-11-11T12:49:25.567Z,102240.37
2022-11-11T12:52:23.262Z,102231.19
2022-11-11T12:55:14.561Z,102204.59
2022-11-11T12:58:09.369Z,102203.91
2022-11-11T13:00:44.251Z,102202.63
2022-11-11T13:03:35.897Z,102206.84
2022-11-11T13:06:22.267Z,102207.06
2022-11-11T13:09:04.376Z,102208.69
2022-11-11T13:11:43.911Z,102217.34
2022-11-11T13:14:31.993Z,102219.56
2022-11-11T13:17:01.571Z,102204.03
2022-11-11T13:19:41.528Z,102213.34
2022-11-11T13:22:22.156Z,102215.09
2022-11-11T13:24:53.423Z,102216.91
2022-11-11T13:27:23.686Z,102226.69
2022-11-11T13:30:05.993Z,102215.19
2022-11-11T13:32:41.912Z,102207.72
2022-11-11T13:35:27.352Z,102211.38
2022-11-11T13:37:54.208Z,102215.06
2022-11-11T13:40:40.551Z,102222.75
2022-11-11T13:43:38.200Z,102216.22
2022-11-11T13:46:05.975Z,102221.31
2022-11-11T13:48:37.195Z,102220.59
2022-11-11T13:51:11.969Z,102225.44
2022-11-11T13:53:39.415Z,102224.75
2022-11-11T13:56:07.817Z,102226.84
2022-11-11T13:58:37.352Z,102227.09
2022-11-11T14:01:06.936Z,102237.91
2022-11-11T14:03:45.821Z,102234.88
2022-11-11T14:06:15.528Z,102231.34
2022-11-11T14:08:50.800Z,102216.47
2022-11-11T14:11:26.803Z,102216.00
2022-11-11T14:13:55.110Z,102215.16
2022-11-11T14:16:37.223Z,102213.59
2022-11-11T14:19:24.671Z,102208.44
2022-11-11T14:21:58.658Z,102213.25
2022-11-11T14:24:37.158Z,102209.81
2022-11-11T14:27:18.264Z,102212.63
2022-11-11T14:29:53.883Z,102213.72
2022-11-11T14:32:55.507Z,102217.69
2022-11-11T14:35:46.297Z,102215.34
2022-11-11T14:38:55.038Z,102216.53
2022-11-11T14:41:40.894Z,102230.37
2022-11-11T14:44:33.840Z,102224.28
2022-11-11T14:47:04.952Z,102229.84
2022-11-11T14:49:51.585Z,102219.34
2022-11-11T14:52:41.088Z,102224.84
2022-11-11T14:55:23.244Z,102228.72
2022-11-11T14:57:54.553Z,102234.34
2022-11-11T15:00:27.794Z,102227.25
2022-11-11T15:03:01.713Z,102231.03
2022-11-11T15:06:01.895Z,102233.87
2022-11-11T15:08:37.699Z,102244.84
2022-11-11T15:11:22.849Z,102235.19
2022-11-11T15:14:28.160Z,102232.72
2022-11-11T15:17:06.684Z,102232.94
2022-11-11T15:19:55.401Z,102232.31
2022-11-11T15:22:47.009Z,102248.72
2022-11-11T15:25:33.310Z,102246.28
2022-11-11T15:28:06.015Z,102256.38
2022-11-11T15:30:51.563Z,102264.69
2022-11-11T15:33:25.272Z,102249.03
2022-11-11T15:36:10.696Z,102259.81
2022-11-11T15:38:38.778Z,102258.88
2022-11-11T15:41:06.365Z,102269.91
2022-11-11T15:43:34.995Z,102280.81
2022-11-11T15:46:03.208Z,102281.00
2022-11-11T15:48:43.194Z,102280.28
2022-11-11T15:51:22.092Z,102281.63
2022-11-11T15:53:49.421Z,102280.19
2022-11-11T15:56:33.654Z,102279.81
2022-11-11T15:59:23.588Z,102291.59
2022-11-11T16:01:51.716Z,102297.44
2022-11-11T16:04:55.409Z,102298.50
2022-11-11T16:07:17.529Z,102287.28
2022-11-11T16:09:45.347Z,102262.56
2022-11-11T16:12:13.669Z,102282.88
2022-11-11T16:14:44.635Z,102281.22
2022-11-11T16:17:12.919Z,102274.09
2022-11-11T16:19:49.073Z,102275.13
2022-11-11T16:22:42.772Z,102278.81
2022-11-11T16:25:15.899Z,102273.72
2022-11-11T16:27:43.131Z,102267.81
2022-11-11T16:30:34.612Z,102273.19
2022-11-11T16:33:01.934Z,102266.19
2022-11-11T16:35:33.102Z,102271.59
2022-11-11T16:38:00.188Z,102260.16
2022-11-11T16:40:42.634Z,102256.63
2022-11-11T16:43:29.927Z,102262.03
2022-11-11T16:46:04.203Z,102263.91
2022-11-11T16:48:34.078Z,102267.59
2022-11-11T16:51:04.078Z,102254.31
2022-11-11T16:53:35.779Z,102243.22
2022-11-11T16:56:04.487Z,102276.09
2022-11-11T16:58:31.784Z,102268.19
2022-11-11T17:01:03.293Z,102259.47
2022-11-11T17:03:30.653Z,102262.09
2022-11-11T17:06:10.145Z,102257.75
2022-11-11T17:08:43.610Z,102257.91
2022-11-11T17:11:28.559Z,102251.03
2022-11-11T17:13:55.419Z,102265.31
2022-11-11T17:16:23.434Z,102261.94
2022-11-11T17:18:50.478Z,102262.00
2022-11-11T17:21:17.458Z,102253.13
2022-11-11T17:23:45.164Z,102249.66
2022-11-11T17:26:12.376Z,102242.53
2022-11-11T17:28:39.682Z,102251.47
2022-11-11T17:31:08.564Z,102247.88
2022-11-11T17:33:35.901Z,102246.06
2022-11-11T17:36:03.132Z,102234.50
2022-11-11T17:38:35.904Z,102231.78
2022-11-11T17:41:02.910Z,102236.31
2022-11-11T17:43:30.661Z,102232.75
2022-11-11T17:46:01.467Z,102233.94
2022-11-11T17:48:28.689Z,102221.59
2022-11-11T17:50:55.539Z,102239.13
2022-11-11T17:53:22.383Z,102242.63
2022-11-11T17:55:50.866Z,102226.66
2022-11-11T17:58:19.380Z,102231.78
2022-11-11T18:00:46.896Z,102233.53
2022-11-11T18:03:13.928Z,102222.84
2022-11-11T18:05:41.067Z,102230.84
2022-11-11T18:08:11.257Z,102220.16
2022-11-11T18:10:38.210Z,102211.41
2022-11-11T18:13:05.295Z,102220.16
2022-11-11T18:15:34.676Z,102220.16
2022-11-11T18:18:01.818Z,102213.00
2022-11-11T18:20:28.911Z,102215.69
2022-11-11T18:22:56.780Z,102220.06
2022-11-11T18:25:24.336Z,102214.72
2022-11-11T18:27:53.537Z,102216.41
2022-11-11T18:30:21.896Z,102215.41
2022-11-11T18:32:48.743Z,102215.31
2022-11-11T18:35:17.310Z,102202.97
2022-11-11T18:37:46.730Z,102206.72
2022-11-11T18:40:14.738Z,102213.78
2022-11-11T18:42:41.800Z,102206.81
2022-11-11T18:45:09.191Z,102223.91
2022-11-11T18:47:36.398Z,102213.22
2022-11-11T18:50:04.179Z,102209.63
2022-11-11T18:52:31.316Z,102202.53
2022-11-11T18:54:58.347Z,102205.28
2022-11-11T18:57:26.457Z,102198.88
2022-11-11T18:59:53.740Z,102207.78
2022-11-11T19:02:21.762Z,102212.38
2022-11-11T19:04:49.705Z,102213.25
2022-11-11T19:07:17.378Z,102214.50
2022-11-11T19:09:44.889Z,102196.56
2022-11-11T19:12:12.192Z,102198.56
2022-11-11T19:14:39.313Z,102211.78
2022-11-11T19:17:06.601Z,102198.78
2022-11-11T19:19:33.816Z,102215.72
2022-11-11T19:22:00.787Z,102193.50
2022-11-11T19:24:32.196Z,102209.37
2022-11-11T19:27:00.642Z,102206.84
2022-11-11T19:29:28.215Z,102200.63
2022-11-11T19:31:55.383Z,102194.31
2022-11-11T19:34:22.452Z,102198.72
2022-11-11T19:36:49.841Z,102207.72
2022-11-11T19:39:16.744Z,102209.47
2022-11-11T19:41:43.643Z,102216.81
2022-11-11T19:44:12.133Z,102214.19
2022-11-11T19:46:40.196Z,102213.31
2022-11-11T19:49:07.207Z,102215.88
2022-11-11T19:51:34.580Z,102214.00
2022-11-11T19:54:01.522Z,102203.47
2022-11-11T19:56:31.796Z,102202.63
2022-11-11T19:58:58.936Z,102205.38
2022-11-11T20:01:26.951Z,102204.47
2022-11-11T20:03:54.650Z,102198.44
2022-11-11T20:06:26.749Z,102198.44
2022-11-11T20:08:54.920Z,102203.78
2022-11-11T20:11:23.003Z,102194.91
2022-11-11T20:13:50.118Z,102205.53
2022-11-11T20:16:17.535Z,102212.66
2022-11-11T20:18:44.427Z,102214.50
2022-11-11T20:21:13.059Z,102211.84
2022-11-11T20:23:41.418Z,102217.13
2022-11-11T20:26:14.189Z,102213.66
2022-11-11T20:28:41.538Z,102214.59
2022-11-11T20:31:16.847Z,102205.72
2022-11-11T20:33:44.446Z,102209.25
2022-11-11T20:36:12.935Z,102220.06
2022-11-11T20:38:40.287Z,102220.09
2022-11-11T20:41:11.318Z,102215.75
2022-11-11T20:43:38.458Z,102223.94
2022-11-11T20:46:10.544Z,102228.34
2022-11-11T20:48:39.825Z,102233.59
2022-11-11T20:51:12.144Z,102234.47
2022-11-11T20:53:39.378Z,102225.66
2022-11-11T20:56:09.243Z,102234.59
2022-11-11T20:58:36.927Z,102236.38
2022-11-11T21:01:05.798Z,102238.19
2022-11-11T21:03:32.960Z,102235.59
2022-11-11T21:06:03.673Z,102224.06
2022-11-11T21:08:32.888Z,102234.78
2022-11-11T21:11:00.763Z,102233.94
2022-11-11T21:13:29.596Z,102235.72
2022-11-11T21:16:15.772Z,102237.44
2022-11-11T21:18:44.970Z,102233.03
2022-11-11T21:21:25.126Z,102221.56
2022-11-11T21:24:02.652Z,102236.56
2022-11-11T21:26:29.969Z,102229.38
2022-11-11T21:28:57.408Z,102230.25
2022-11-11T21:31:26.791Z,102216.87
2022-11-11T21:33:58.748Z,102218.66
2022-11-11T21:36:27.305Z,102219.47
2022-11-11T21:38:54.693Z,102221.28
2022-11-11T21:41:26.352Z,102227.41
2022-11-11T21:43:54.180Z,102229.16
2022-11-11T21:46:23.151Z,102222.94
2022-11-11T21:48:50.963Z,102225.56
2022-11-11T21:51:23.657Z,102231.81
2022-11-11T21:53:58.047Z,102236.16
2022-11-11T21:56:31.176Z,102236.16
2022-11-11T21:59:00.849Z,102243.41
2022-11-11T22:01:31.007Z,102252.44
2022-11-11T22:04:03.041Z,102237.31
2022-11-11T22:06:30.407Z,102232.84
2022-11-11T22:08:58.359Z,102240.16
2022-11-11T22:11:27.647Z,102232.22
2022-11-11T22:13:54.604Z,102220.56
2022-11-11T22:16:26.552Z,102224.97
2022-11-11T22:19:13.952Z,102218.78
2022-11-11T22:21:42.032Z,102216.19
2022-11-11T22:24:10.233Z,102218.03
2022-11-11T22:26:39.916Z,102229.13
2022-11-11T22:29:09.049Z,102229.25
2022-11-11T22:31:37.351Z,102226.56
2022-11-11T22:34:06.283Z,102227.41
2022-11-11T22:36:34.293Z,102217.56
2022-11-11T22:39:01.194Z,102213.03
2022-11-11T22:41:30.227Z,102215.69
2022-11-11T22:43:59.829Z,102200.66
2022-11-11T22:46:28.226Z,102211.28
2022-11-11T22:48:57.048Z,102223.03
2022-11-11T22:51:25.034Z,102217.56
2022-11-11T22:53:57.022Z,102213.97
2022-11-11T22:56:24.624Z,102210.44
2022-11-11T22:58:52.089Z,102219.63
2022-11-11T23:01:29.501Z,102215.16
2022-11-11T23:04:01.837Z,102199.03
2022-11-11T23:06:36.029Z,102182.09
2022-11-11T23:09:04.266Z,102194.66
2022-11-11T23:11:32.601Z,102177.06
2022-11-11T23:14:01.332Z,102190.03
2022-11-11T23:16:29.118Z,102186.44
2022-11-11T23:18:55.964Z,102190.25
2022-11-11T23:21:24.247Z,102186.50
2022-11-11T23:23:51.958Z,102203.63
2022-11-11T23:26:25.474Z,102199.37
2022-11-11T23:28:52.554Z,102197.75
2022-11-11T23:31:22.975Z,102193.16
2022-11-11T23:33:52.095Z,102195.59
2022-11-11T23:36:20.837Z,102184.75
2022-11-11T23:38:48.806Z,102185.50
2022-11-11T23:41:15.842Z,102185.59
2022-11-11T23:43:44.359Z,102191.88
2022-11-11T23:46:11.676Z,102189.94
2022-11-11T23:48:38.944Z,102180.25
2022-11-11T23:51:05.867Z,102195.16
2022-11-11T23:53:32.913Z,102187.19
2022-11-11T23:55:59.753Z,102182.69
2022-11-11T23:58:27.036Z,102183.50
